sensor_id;sensor_type;location;lat;lon;timestamp;pressure;altitude;pressure_sealevel;temperature;humidity
57628;BME280;43451;49.060;10.616;2023-05-01T00:02:01;96753.81;;;8.10;100.00
57628;BME280;43451;49.060;10.616;2023-05-01T00:04:27;96749.91;;;8.08;100.00
57628;BME280;43451;49.060;10.616;2023-05-01T00:06:52;96757.28;;;8.11;100.00
57628;BME280;43451;49.060;10.616;2023-05-01T00:09:17;96750.19;;;7.96;100.00
57628;BME280;43451;49.060;10.616;2023-05-01T00:11:43;96746.88;;;8.13;100.00
57628;BME280;43451;49.060;10.616;2023-05-01T00:14:08;96747.69;;;8.17;100.00
57628;BME280;43451;49.060;10.616;2023-05-01T00:16:33;96742.25;;;8.17;100.00
57628;BME280;43451;49.060;10.616;2023-05-01T00:19:00;96741.06;;;8.11;100.00
57628;BME280;43451;49.060;10.616;2023-05-01T00:21:25;96734.09;;;8.10;100.00
57628;BME280;43451;49.060;10.616;2023-05-01T00:23:53;96737.59;;;8.14;100.00
57628;BME280;43451;49.060;10.616;2023-05-01T00:26:18;96734.50;;;8.12;100.00
57628;BME280;43451;49.060;10.616;2023-05-01T00:28:43;96729.16;;;8.19;100.00
57628;BME280;43451;49.060;10.616;2023-05-01T00:31:09;96732.22;;;8.18;100.00
57628;BME280;43451;49.060;10.616;2023-05-01T00:33:34;96727.19;;;8.16;100.00
57628;BME280;43451;49.060;10.616;2023-05-01T00:35:59;96716.72;;;8.14;100.00
57628;BME280;43451;49.060;10.616;2023-05-01T00:38:25;96718.28;;;8.12;100.00
57628;BME280;43451;49.060;10.616;2023-05-01T00:40:50;96720.09;;;8.01;100.00
57628;BME280;43451;49.060;10.616;2023-05-01T00:43:16;96722.06;;;8.04;100.00
57628;BME280;43451;49.060;10.616;2023-05-01T00:45:42;96712.66;;;7.87;100.00
57628;BME280;43451;49.060;10.616;2023-05-01T00:48:08;96718.38;;;7.78;100.00
57628;BME280;43451;49.060;10.616;2023-05-01T00:50:34;96717.63;;;7.81;100.00
57628;BME280;43451;49.060;10.616;2023-05-01T00:52:59;96712.47;;;7.65;100.00
57628;BME280;43451;49.060;10.616;2023-05-01T00:55:25;96717.09;;;7.65;100.00
57628;BME280;43451;49.060;10.616;2023-05-01T00:57:50;96708.84;;;7.51;100.00
57628;BME280;43451;49.060;10.616;2023-05-01T01:00:16;96706.03;;;7.40;100.00
57628;BME280;43451;49.060;10.616;2023-05-01T01:02:43;96695.53;;;7.35;100.00
57628;BME280;43451;49.060;10.616;2023-05-01T01:05:09;96695.22;;;7.40;100.00
57628;BME280;43451;49.060;10.616;2023-05-01T01:07:48;96695.72;;;7.53;100.00
57628;BME280;43451;49.060;10.616;2023-05-01T01:18:26;96675.84;;;7.34;100.00
57628;BME280;43451;49.060;10.616;2023-05-01T01:21:04;96673.38;;;7.18;100.00
57628;BME280;43451;49.060;10.616;2023-05-01T01:34:35;96666.47;;;7.21;100.00
57628;BME280;43451;49.060;10.616;2023-05-01T01:41:55;96672.81;;;7.02;100.00
57628;BME280;43451;49.060;10.616;2023-05-01T01:44:24;96667.00;;;7.00;100.00
57628;BME280;43451;49.060;10.616;2023-05-01T01:46:52;96665.50;;;7.03;100.00
57628;BME280;43451;49.060;10.616;2023-05-01T01:49:19;96659.44;;;7.16;100.00
57628;BME280;43451;49.060;10.616;2023-05-01T01:51:46;96661.41;;;7.19;100.00
57628;BME280;43451;49.060;10.616;2023-05-01T01:54:12;96662.47;;;7.08;100.00
57628;BME280;43451;49.060;10.616;2023-05-01T01:56:39;96656.91;;;6.93;100.00
57628;BME280;43451;49.060;10.616;2023-05-01T01:59:06;96656.22;;;7.04;100.00
57628;BME280;43451;49.060;10.616;2023-05-01T02:01:32;96665.72;;;7.24;100.00
57628;BME280;43451;49.060;10.616;2023-05-01T02:03:59;96666.75;;;7.12;100.00
57628;BME280;43451;49.060;10.616;2023-05-01T02:06:25;96655.53;;;7.10;100.00
57628;BME280;43451;49.060;10.616;2023-05-01T02:08:51;96663.56;;;7.03;100.00
57628;BME280;43451;49.060;10.616;2023-05-01T02:11:18;96667.84;;;7.04;100.00
57628;BME280;43451;49.060;10.616;2023-05-01T02:13:45;96651.69;;;7.11;100.00
57628;BME280;43451;49.060;10.616;2023-05-01T02:16:11;96654.00;;;7.13;100.00
57628;BME280;43451;49.060;10.616;2023-05-01T02:18:37;96659.16;;;7.25;100.00
57628;BME280;43451;49.060;10.616;2023-05-01T02:21:04;96658.78;;;7.23;100.00
57628;BME280;43451;49.060;10.616;2023-05-01T02:23:30;96651.00;;;7.18;100.00
57628;BME280;43451;49.060;10.616;2023-05-01T02:25:56;96653.41;;;7.27;100.00
57628;BME280;43451;49.060;10.616;2023-05-01T02:28:23;96641.94;;;7.40;100.00
57628;BME280;43451;49.060;10.616;2023-05-01T02:30:50;96652.25;;;7.28;100.00
57628;BME280;43451;49.060;10.616;2023-05-01T02:33:16;96648.81;;;7.31;100.00
57628;BME280;43451;49.060;10.616;2023-05-01T02:35:42;96641.16;;;7.36;100.00
57628;BME280;43451;49.060;10.616;2023-05-01T02:38:14;96637.47;;;7.18;100.00
57628;BME280;43451;49.060;10.616;2023-05-01T02:40:40;96636.34;;;7.22;100.00
57628;BME280;43451;49.060;10.616;2023-05-01T02:43:08;96627.84;;;7.17;100.00
57628;BME280;43451;49.060;10.616;2023-05-01T02:45:36;96624.53;;;6.97;100.00
57628;BME280;43451;49.060;10.616;2023-05-01T02:48:03;96624.66;;;7.08;100.00
57628;BME280;43451;49.060;10.616;2023-05-01T02:50:29;96618.06;;;7.05;100.00
57628;BME280;43451;49.060;10.616;2023-05-01T02:52:55;96622.06;;;6.85;100.00
57628;BME280;43451;49.060;10.616;2023-05-01T02:55:20;96613.88;;;6.74;100.00
57628;BME280;43451;49.060;10.616;2023-05-01T02:57:46;96618.84;;;6.72;100.00
57628;BME280;43451;49.060;10.616;2023-05-01T03:00:11;96617.63;;;7.00;100.00
57628;BME280;43451;49.060;10.616;2023-05-01T03:02:38;96614.50;;;6.97;100.00
57628;BME280;43451;49.060;10.616;2023-05-01T03:05:04;96622.13;;;6.88;100.00
57628;BME280;43451;49.060;10.616;2023-05-01T03:07:29;96624.94;;;6.99;100.00
57628;BME280;43451;49.060;10.616;2023-05-01T03:09:59;96618.84;;;7.06;100.00
57628;BME280;43451;49.060;10.616;2023-05-01T03:12:25;96612.94;;;6.96;100.00
57628;BME280;43451;49.060;10.616;2023-05-01T03:14:50;96609.03;;;6.90;100.00
57628;BME280;43451;49.060;10.616;2023-05-01T03:17:15;96600.19;;;6.93;100.00
57628;BME280;43451;49.060;10.616;2023-05-01T03:19:40;96604.03;;;6.92;100.00
57628;BME280;43451;49.060;10.616;2023-05-01T03:22:06;96597.91;;;6.95;100.00
57628;BME280;43451;49.060;10.616;2023-05-01T03:24:32;96605.28;;;7.02;100.00
57628;BME280;43451;49.060;10.616;2023-05-01T03:26:57;96594.47;;;6.98;100.00
57628;BME280;43451;49.060;10.616;2023-05-01T03:29:23;96599.03;;;6.94;100.00
57628;BME280;43451;49.060;10.616;2023-05-01T03:31:48;96595.88;;;6.85;100.00
57628;BME280;43451;49.060;10.616;2023-05-01T03:34:13;96599.69;;;6.84;100.00
57628;BME280;43451;49.060;10.616;2023-05-01T03:36:39;96600.78;;;6.76;100.00
57628;BME280;43451;49.060;10.616;2023-05-01T03:39:04;96601.91;;;6.75;100.00
57628;BME280;43451;49.060;10.616;2023-05-01T03:41:32;96594.94;;;6.70;100.00
57628;BME280;43451;49.060;10.616;2023-05-01T03:43:57;96604.53;;;6.68;100.00
57628;BME280;43451;49.060;10.616;2023-05-01T03:46:23;96595.38;;;6.76;100.00
57628;BME280;43451;49.060;10.616;2023-05-01T03:48:48;96593.53;;;6.50;100.00
57628;BME280;43451;49.060;10.616;2023-05-01T03:51:13;96591.78;;;6.65;100.00
57628;BME280;43451;49.060;10.616;2023-05-01T03:53:41;96584.16;;;6.74;100.00
57628;BME280;43451;49.060;10.616;2023-05-01T03:56:06;96583.72;;;6.68;100.00
57628;BME280;43451;49.060;10.616;2023-05-01T03:58:33;96586.88;;;6.74;100.00
57628;BME280;43451;49.060;10.616;2023-05-01T04:00:58;96585.22;;;6.66;100.00
57628;BME280;43451;49.060;10.616;2023-05-01T04:03:25;96585.66;;;6.68;100.00
57628;BME280;43451;49.060;10.616;2023-05-01T04:05:50;96583.41;;;6.73;100.00
57628;BME280;43451;49.060;10.616;2023-05-01T04:08:16;96584.66;;;6.83;100.00
57628;BME280;43451;49.060;10.616;2023-05-01T04:10:42;96575.78;;;6.83;100.00
57628;BME280;43451;49.060;10.616;2023-05-01T04:13:07;96571.19;;;6.87;100.00
57628;BME280;43451;49.060;10.616;2023-05-01T04:15:33;96571.97;;;6.87;100.00
57628;BME280;43451;49.060;10.616;2023-05-01T04:17:58;96568.63;;;6.64;100.00
57628;BME280;43451;49.060;10.616;2023-05-01T04:20:23;96564.13;;;6.75;100.00
57628;BME280;43451;49.060;10.616;2023-05-01T04:22:49;96572.63;;;6.77;100.00
57628;BME280;43451;49.060;10.616;2023-05-01T04:25:14;96563.31;;;6.71;100.00
57628;BME280;43451;49.060;10.616;2023-05-01T04:27:39;96568.34;;;6.72;100.00
57628;BME280;43451;49.060;10.616;2023-05-01T04:30:05;96561.50;;;6.82;100.00
57628;BME280;43451;49.060;10.616;2023-05-01T04:32:30;96561.22;;;6.94;100.00
57628;BME280;43451;49.060;10.616;2023-05-01T04:34:56;96562.78;;;6.95;100.00
57628;BME280;43451;49.060;10.616;2023-05-01T04:37:21;96566.59;;;6.91;100.00
57628;BME280;43451;49.060;10.616;2023-05-01T04:39:47;96568.94;;;6.92;100.00
57628;BME280;43451;49.060;10.616;2023-05-01T04:42:12;96577.63;;;7.16;100.00
57628;BME280;43451;49.060;10.616;2023-05-01T04:44:37;96583.13;;;7.23;100.00
57628;BME280;43451;49.060;10.616;2023-05-01T04:47:03;96585.53;;;7.35;100.00
57628;BME280;43451;49.060;10.616;2023-05-01T04:49:28;96570.88;;;7.36;100.00
57628;BME280;43451;49.060;10.616;2023-05-01T04:51:54;96572.88;;;7.43;100.00
57628;BME280;43451;49.060;10.616;2023-05-01T04:54:19;96577.13;;;7.48;100.00
57628;BME280;43451;49.060;10.616;2023-05-01T04:56:44;96572.97;;;7.61;100.00
57628;BME280;43451;49.060;10.616;2023-05-01T04:59:10;96570.97;;;7.51;100.00
57628;BME280;43451;49.060;10.616;2023-05-01T05:01:35;96579.53;;;7.60;100.00
57628;BME280;43451;49.060;10.616;2023-05-01T05:04:00;96569.88;;;7.55;100.00
57628;BME280;43451;49.060;10.616;2023-05-01T05:06:26;96579.50;;;7.53;100.00
57628;BME280;43451;49.060;10.616;2023-05-01T05:08:51;96580.72;;;7.62;100.00
57628;BME280;43451;49.060;10.616;2023-05-01T05:11:17;96580.00;;;7.69;100.00
57628;BME280;43451;49.060;10.616;2023-05-01T05:13:43;96577.41;;;7.83;100.00
57628;BME280;43451;49.060;10.616;2023-05-01T05:16:08;96580.53;;;7.93;100.00
57628;BME280;43451;49.060;10.616;2023-05-01T05:18:33;96574.38;;;7.96;100.00
57628;BME280;43451;49.060;10.616;2023-05-01T05:21:01;96576.25;;;7.88;100.00
57628;BME280;43451;49.060;10.616;2023-05-01T05:23:27;96579.00;;;7.95;100.00
57628;BME280;43451;49.060;10.616;2023-05-01T05:25:52;96583.69;;;8.02;100.00
57628;BME280;43451;49.060;10.616;2023-05-01T05:28:18;96579.09;;;8.06;100.00
57628;BME280;43451;49.060;10.616;2023-05-01T05:30:43;96577.97;;;8.18;100.00
57628;BME280;43451;49.060;10.616;2023-05-01T05:33:08;96582.94;;;8.05;100.00
57628;BME280;43451;49.060;10.616;2023-05-01T05:35:34;96579.94;;;8.24;100.00
57628;BME280;43451;49.060;10.616;2023-05-01T05:37:59;96577.22;;;8.21;100.00
57628;BME280;43451;49.060;10.616;2023-05-01T05:40:25;96579.28;;;8.42;100.00
57628;BME280;43451;49.060;10.616;2023-05-01T05:42:50;96575.72;;;8.30;100.00
57628;BME280;43451;49.060;10.616;2023-05-01T05:45:15;96580.03;;;8.39;100.00
57628;BME280;43451;49.060;10.616;2023-05-01T05:47:41;96566.56;;;8.53;100.00
57628;BME280;43451;49.060;10.616;2023-05-01T05:50:06;96566.59;;;8.56;100.00
57628;BME280;43451;49.060;10.616;2023-05-01T05:52:32;96568.88;;;8.47;100.00
57628;BME280;43451;49.060;10.616;2023-05-01T05:54:57;96569.31;;;8.60;100.00
57628;BME280;43451;49.060;10.616;2023-05-01T05:57:22;96567.31;;;8.50;100.00
57628;BME280;43451;49.060;10.616;2023-05-01T05:59:48;96559.59;;;8.55;100.00
57628;BME280;43451;49.060;10.616;2023-05-01T06:02:14;96570.03;;;8.50;100.00
57628;BME280;43451;49.060;10.616;2023-05-01T06:04:39;96560.75;;;8.51;100.00
57628;BME280;43451;49.060;10.616;2023-05-01T06:07:04;96576.34;;;8.82;100.00
57628;BME280;43451;49.060;10.616;2023-05-01T06:09:30;96572.06;;;8.78;100.00
57628;BME280;43451;49.060;10.616;2023-05-01T06:11:55;96569.34;;;8.74;100.00
57628;BME280;43451;49.060;10.616;2023-05-01T06:14:21;96566.25;;;8.79;100.00
57628;BME280;43451;49.060;10.616;2023-05-01T06:16:46;96567.44;;;8.89;100.00
57628;BME280;43451;49.060;10.616;2023-05-01T06:19:11;96569.03;;;9.01;97.89
57628;BME280;43451;49.060;10.616;2023-05-01T06:21:37;96572.09;;;8.89;100.00
57628;BME280;43451;49.060;10.616;2023-05-01T06:24:02;96566.63;;;8.81;100.00
57628;BME280;43451;49.060;10.616;2023-05-01T06:26:27;96560.44;;;8.84;100.00
57628;BME280;43451;49.060;10.616;2023-05-01T06:28:53;96559.31;;;8.86;99.54
57628;BME280;43451;49.060;10.616;2023-05-01T06:31:19;96560.84;;;8.87;100.00
57628;BME280;43451;49.060;10.616;2023-05-01T06:33:44;96554.25;;;8.80;99.33
57628;BME280;43451;49.060;10.616;2023-05-01T06:36:09;96559.31;;;8.82;99.11
57628;BME280;43451;49.060;10.616;2023-05-01T06:38:35;96565.50;;;8.86;99.03
57628;BME280;43451;49.060;10.616;2023-05-01T06:41:00;96551.56;;;8.84;99.42
57628;BME280;43451;49.060;10.616;2023-05-01T06:43:25;96551.56;;;8.84;99.69
57628;BME280;43451;49.060;10.616;2023-05-01T06:45:54;96553.50;;;8.87;100.00
57628;BME280;43451;49.060;10.616;2023-05-01T06:48:19;96554.31;;;8.91;100.00
57628;BME280;43451;49.060;10.616;2023-05-01T06:50:45;96560.09;;;8.93;100.00
57628;BME280;43451;49.060;10.616;2023-05-01T06:53:11;96560.88;;;8.94;100.00
57628;BME280;43451;49.060;10.616;2023-05-01T06:55:36;96553.91;;;8.93;100.00
57628;BME280;43451;49.060;10.616;2023-05-01T06:58:01;96552.75;;;8.97;100.00
57628;BME280;43451;49.060;10.616;2023-05-01T07:00:28;96550.03;;;8.97;100.00
57628;BME280;43451;49.060;10.616;2023-05-01T07:02:53;96557.41;;;9.04;100.00
57628;BME280;43451;49.060;10.616;2023-05-01T07:05:18;96547.72;;;9.03;100.00
57628;BME280;43451;49.060;10.616;2023-05-01T07:07:44;96551.59;;;9.02;100.00
57628;BME280;43451;49.060;10.616;2023-05-01T07:10:09;96548.50;;;9.00;100.00
57628;BME280;43451;49.060;10.616;2023-05-01T07:12:35;96541.91;;;8.97;100.00
57628;BME280;43451;49.060;10.616;2023-05-01T07:15:00;96544.25;;;8.99;100.00
57628;BME280;43451;49.060;10.616;2023-05-01T07:17:25;96548.50;;;9.00;100.00
57628;BME280;43451;49.060;10.616;2023-05-01T07:19:51;96544.63;;;9.01;100.00
57628;BME280;43451;49.060;10.616;2023-05-01T07:22:16;96536.13;;;8.99;100.00
57628;BME280;43451;49.060;10.616;2023-05-01T07:24:41;96542.31;;;8.96;100.00
57628;BME280;43451;49.060;10.616;2023-05-01T07:27:07;96534.53;;;8.91;100.00
57628;BME280;43451;49.060;10.616;2023-05-01T07:29:34;96535.34;;;8.91;100.00
57628;BME280;43451;49.060;10.616;2023-05-01T07:32:00;96535.34;;;8.95;100.00
57628;BME280;43451;49.060;10.616;2023-05-01T07:34:25;96537.28;;;9.05;100.00
57628;BME280;43451;49.060;10.616;2023-05-01T07:36:51;96534.97;;;9.07;100.00
57628;BME280;43451;49.060;10.616;2023-05-01T07:39:16;96527.97;;;8.99;100.00
57628;BME280;43451;49.060;10.616;2023-05-01T07:41:42;96525.66;;;8.97;100.00
57628;BME280;43451;49.060;10.616;2023-05-01T07:44:07;96529.94;;;8.98;100.00
57628;BME280;43451;49.060;10.616;2023-05-01T07:46:33;96533.41;;;8.92;100.00
57628;BME280;43451;49.060;10.616;2023-05-01T07:48:59;96535.72;;;8.90;100.00
57628;BME280;43451;49.060;10.616;2023-05-01T07:51:24;96533.78;;;8.87;100.00
57628;BME280;43451;49.060;10.616;2023-05-01T07:53:50;96534.53;;;8.91;100.00
57628;BME280;43451;49.060;10.616;2023-05-01T07:56:15;96541.53;;;9.02;100.00
57628;BME280;43451;49.060;10.616;2023-05-01T07:58:41;96541.53;;;8.99;100.00
57628;BME280;43451;49.060;10.616;2023-05-01T08:01:06;96540.00;;;9.09;100.00
57628;BME280;43451;49.060;10.616;2023-05-01T08:03:33;96540.00;;;9.09;100.00
57628;BME280;43451;49.060;10.616;2023-05-01T08:05:58;96539.22;;;9.08;100.00
57628;BME280;43451;49.060;10.616;2023-05-01T08:08:23;96541.53;;;9.06;100.00
57628;BME280;43451;49.060;10.616;2023-05-01T08:10:49;96541.16;;;9.11;100.00
57628;BME280;43451;49.060;10.616;2023-05-01T08:13:15;96549.28;;;9.11;100.00
57628;BME280;43451;49.060;10.616;2023-05-01T08:15:40;96543.47;;;9.13;100.00
57628;BME280;43451;49.060;10.616;2023-05-01T08:18:09;96553.16;;;9.17;100.00
57628;BME280;43451;49.060;10.616;2023-05-01T08:20:37;96560.94;;;9.29;100.00
57628;BME280;43451;49.060;10.616;2023-05-01T08:23:02;96572.53;;;9.26;100.00
57628;BME280;43451;49.060;10.616;2023-05-01T08:25:27;96565.56;;;9.29;100.00
57628;BME280;43451;49.060;10.616;2023-05-01T08:27:54;96563.25;;;9.27;100.00
57628;BME280;43451;49.060;10.616;2023-05-01T08:30:19;96565.19;;;9.23;100.00
57628;BME280;43451;49.060;10.616;2023-05-01T08:32:44;96564.78;;;9.21;100.00
57628;BME280;43451;49.060;10.616;2023-05-01T08:35:10;96566.34;;;9.40;100.00
57628;BME280;43451;49.060;10.616;2023-05-01T08:37:35;96564.81;;;9.43;100.00
57628;BME280;43451;49.060;10.616;2023-05-01T08:40:01;96562.84;;;9.54;100.00
57628;BME280;43451;49.060;10.616;2023-05-01T08:42:33;96563.25;;;9.52;100.00
57628;BME280;43451;49.060;10.616;2023-05-01T08:44:59;96563.25;;;9.56;100.00
57628;BME280;43451;49.060;10.616;2023-05-01T08:47:25;96573.69;;;9.47;100.00
57628;BME280;43451;49.060;10.616;2023-05-01T08:49:53;96564.78;;;9.57;100.00
57628;BME280;43451;49.060;10.616;2023-05-01T08:52:19;96569.06;;;9.44;100.00
57628;BME280;43451;49.060;10.616;2023-05-01T08:54:46;96574.09;;;9.38;100.00
57628;BME280;43451;49.060;10.616;2023-05-01T08:57:12;96574.47;;;9.37;100.00
57628;BME280;43451;49.060;10.616;2023-05-01T08:59:38;96569.44;;;9.67;100.00
57628;BME280;43451;49.060;10.616;2023-05-01T09:02:05;96562.84;;;9.72;100.00
57628;BME280;43451;49.060;10.616;2023-05-01T09:04:32;96570.22;;;9.75;100.00
57628;BME280;43451;49.060;10.616;2023-05-01T09:06:58;96559.38;;;9.68;100.00
57628;BME280;43451;49.060;10.616;2023-05-01T09:09:25;96569.44;;;9.49;100.00
57628;BME280;43451;49.060;10.616;2023-05-01T09:11:51;96581.06;;;9.64;100.00
57628;BME280;43451;49.060;10.616;2023-05-01T09:14:16;96572.13;;;9.82;100.00
57628;BME280;43451;49.060;10.616;2023-05-01T09:16:42;96576.03;;;9.81;100.00
57628;BME280;43451;49.060;10.616;2023-05-01T09:19:07;96577.19;;;9.83;100.00
57628;BME280;43451;49.060;10.616;2023-05-01T09:21:33;96573.31;;;9.77;100.00
57628;BME280;43451;49.060;10.616;2023-05-01T09:23:59;96574.09;;;9.77;100.00
57628;BME280;43451;49.060;10.616;2023-05-01T09:26:25;96575.63;;;9.75;100.00
57628;BME280;43451;49.060;10.616;2023-05-01T09:28:51;96581.44;;;9.73;100.00
57628;BME280;43451;49.060;10.616;2023-05-01T09:31:28;96576.00;;;9.70;100.00
57628;BME280;43451;49.060;10.616;2023-05-01T09:33:55;96576.78;;;9.63;100.00
57628;BME280;43451;49.060;10.616;2023-05-01T09:36:21;96576.03;;;9.66;100.00
57628;BME280;43451;49.060;10.616;2023-05-01T09:38:47;96586.09;;;9.69;100.00
57628;BME280;43451;49.060;10.616;2023-05-01T09:41:12;96580.28;;;9.74;100.00
57628;BME280;43451;49.060;10.616;2023-05-01T09:43:38;96577.94;;;9.84;100.00
57628;BME280;43451;49.060;10.616;2023-05-01T09:46:07;96577.94;;;9.91;100.00
57628;BME280;43451;49.060;10.616;2023-05-01T09:48:33;96572.50;;;9.91;100.00
57628;BME280;43451;49.060;10.616;2023-05-01T09:50:59;96572.47;;;10.05;100.00
57628;BME280;43451;49.060;10.616;2023-05-01T09:53:37;96580.19;;;10.25;100.00
57628;BME280;43451;49.060;10.616;2023-05-01T09:56:03;96581.38;;;10.02;100.00
57628;BME280;43451;49.060;10.616;2023-05-01T09:58:28;96574.84;;;9.89;100.00
57628;BME280;43451;49.060;10.616;2023-05-01T10:00:54;96568.66;;;9.77;100.00
57628;BME280;43451;49.060;10.616;2023-05-01T10:03:19;96576.41;;;9.79;100.00
57628;BME280;43451;49.060;10.616;2023-05-01T10:05:45;96574.84;;;9.78;100.00
57628;BME280;43451;49.060;10.616;2023-05-01T10:08:10;96571.75;;;9.80;100.00
57628;BME280;43451;49.060;10.616;2023-05-01T10:10:40;96564.00;;;9.82;100.00
57628;BME280;43451;49.060;10.616;2023-05-01T10:13:14;96574.84;;;9.82;100.00
57628;BME280;43451;49.060;10.616;2023-05-01T10:15:39;96563.97;;;9.85;100.00
57628;BME280;43451;49.060;10.616;2023-05-01T10:18:06;96573.28;;;9.91;100.00
57628;BME280;43451;49.060;10.616;2023-05-01T10:20:31;96572.91;;;9.93;100.00
57628;BME280;43451;49.060;10.616;2023-05-01T10:22:58;96575.56;;;10.07;100.00
57628;BME280;43451;49.060;10.616;2023-05-01T10:25:23;96571.72;;;10.01;100.00
57628;BME280;43451;49.060;10.616;2023-05-01T10:27:49;96580.19;;;10.17;100.00
57628;BME280;43451;49.060;10.616;2023-05-01T10:30:16;96575.56;;;10.14;100.00
57628;BME280;43451;49.060;10.616;2023-05-01T10:32:42;96578.66;;;10.16;100.00
57628;BME280;43451;49.060;10.616;2023-05-01T10:35:08;96575.19;;;10.16;100.00
57628;BME280;43451;49.060;10.616;2023-05-01T10:40:46;96569.34;;;10.32;100.00
57628;BME280;43451;49.060;10.616;2023-05-01T10:45:37;96576.28;;;10.47;100.00
57628;BME280;43451;49.060;10.616;2023-05-01T10:48:02;96570.78;;;10.58;100.00
57628;BME280;43451;49.060;10.616;2023-05-01T10:50:27;96572.69;;;10.64;100.00
57628;BME280;43451;49.060;10.616;2023-05-01T10:55:37;96562.25;;;10.63;100.00
57628;BME280;43451;49.060;10.616;2023-05-01T10:58:02;96566.88;;;10.62;100.00
57628;BME280;43451;49.060;10.616;2023-05-01T11:00:28;96560.69;;;10.58;100.00
57628;BME280;43451;49.060;10.616;2023-05-01T11:08:32;96551.34;;;10.66;100.00
57628;BME280;43451;49.060;10.616;2023-05-01T11:13:58;96552.03;;;10.81;100.00
57628;BME280;43451;49.060;10.616;2023-05-01T11:19:02;96552.22;;;11.15;100.00
57628;BME280;43451;49.060;10.616;2023-05-01T11:21:28;96547.22;;;11.10;100.00
57628;BME280;43451;49.060;10.616;2023-05-01T11:23:54;96542.47;;;11.22;100.00
57628;BME280;43451;49.060;10.616;2023-05-01T11:26:19;96545.56;;;11.24;100.00
57628;BME280;43451;49.060;10.616;2023-05-01T11:28:46;96546.47;;;11.58;98.81
57628;BME280;43451;49.060;10.616;2023-05-01T11:31:16;96546.78;;;11.15;100.00
57628;BME280;43451;49.060;10.616;2023-05-01T11:33:42;96542.88;;;11.20;100.00
57628;BME280;43451;49.060;10.616;2023-05-01T11:36:07;96541.53;;;11.43;100.00
57628;BME280;43451;49.060;10.616;2023-05-01T11:38:33;96532.84;;;11.58;100.00
57628;BME280;43451;49.060;10.616;2023-05-01T11:40:59;96528.03;;;11.73;100.00
57628;BME280;43451;49.060;10.616;2023-05-01T11:43:25;96527.94;;;11.84;100.00
57628;BME280;43451;49.060;10.616;2023-05-01T11:45:51;96532.97;;;11.89;100.00
57628;BME280;43451;49.060;10.616;2023-05-01T11:48:18;96524.09;;;12.19;100.00
57628;BME280;43451;49.060;10.616;2023-05-01T11:50:44;96526.16;;;12.12;100.00
57628;BME280;43451;49.060;10.616;2023-05-01T11:53:11;96523.09;;;12.06;96.75
57628;BME280;43451;49.060;10.616;2023-05-01T11:55:37;96534.56;;;12.21;100.00
57628;BME280;43451;49.060;10.616;2023-05-01T11:58:05;96527.63;;;12.16;100.00
57628;BME280;43451;49.060;10.616;2023-05-01T12:05:26;96530.94;;;12.35;98.95
57628;BME280;43451;49.060;10.616;2023-05-01T12:08:05;96524.19;;;12.43;95.02
57628;BME280;43451;49.060;10.616;2023-05-01T12:10:32;96527.41;;;12.38;90.72
57628;BME280;43451;49.060;10.616;2023-05-01T12:12:58;96518.84;;;12.36;88.51
57628;BME280;43451;49.060;10.616;2023-05-01T12:15:24;96520.00;;;12.65;88.02
57628;BME280;43451;49.060;10.616;2023-05-01T12:17:49;96517.22;;;12.42;91.54
57628;BME280;43451;49.060;10.616;2023-05-01T12:20:15;96520.16;;;12.54;95.91
57628;BME280;43451;49.060;10.616;2023-05-01T12:22:47;96520.38;;;12.40;91.64
57628;BME280;43451;49.060;10.616;2023-05-01T12:25:13;96516.78;;;12.47;96.47
57628;BME280;43451;49.060;10.616;2023-05-01T12:27:44;96515.38;;;12.66;93.52
57628;BME280;43451;49.060;10.616;2023-05-01T12:30:10;96508.19;;;12.48;93.26
57628;BME280;43451;49.060;10.616;2023-05-01T12:32:35;96512.44;;;12.49;91.84
57628;BME280;43451;49.060;10.616;2023-05-01T12:35:10;96512.19;;;12.40;100.00
57628;BME280;43451;49.060;10.616;2023-05-01T12:37:36;96517.97;;;12.42;100.00
57628;BME280;43451;49.060;10.616;2023-05-01T12:40:02;96519.72;;;12.60;100.00
57628;BME280;43451;49.060;10.616;2023-05-01T12:42:28;96515.53;;;12.51;96.41
57628;BME280;43451;49.060;10.616;2023-05-01T12:44:57;96511.84;;;12.65;95.46
57628;BME280;43451;49.060;10.616;2023-05-01T12:47:23;96514.44;;;12.76;86.99
57628;BME280;43451;49.060;10.616;2023-05-01T12:49:59;96506.38;;;12.69;97.08
57628;BME280;43451;49.060;10.616;2023-05-01T12:52:25;96514.75;;;12.82;100.00
57628;BME280;43451;49.060;10.616;2023-05-01T12:54:56;96504.00;;;12.98;100.00
57628;BME280;43451;49.060;10.616;2023-05-01T12:57:25;96503.88;;;13.05;93.37
57628;BME280;43451;49.060;10.616;2023-05-01T12:59:56;96507.19;;;13.20;90.33
57628;BME280;43451;49.060;10.616;2023-05-01T13:02:25;96507.13;;;12.96;88.68
57628;BME280;43451;49.060;10.616;2023-05-01T13:05:00;96499.31;;;12.98;90.31
57628;BME280;43451;49.060;10.616;2023-05-01T13:07:29;96496.28;;;13.20;89.36
57628;BME280;43451;49.060;10.616;2023-05-01T13:09:55;96491.38;;;13.08;88.50
57628;BME280;43451;49.060;10.616;2023-05-01T13:12:24;96490.69;;;13.04;86.25
57628;BME280;43451;49.060;10.616;2023-05-01T13:14:50;96493.81;;;13.02;84.49
57628;BME280;43451;49.060;10.616;2023-05-01T13:17:29;96504.47;;;12.93;87.11
57628;BME280;43451;49.060;10.616;2023-05-01T13:22:30;96497.50;;;13.15;85.95
57628;BME280;43451;49.060;10.616;2023-05-01T13:24:56;96499.44;;;12.91;86.66
57628;BME280;43451;49.060;10.616;2023-05-01T13:27:22;96496.84;;;12.81;89.42
57628;BME280;43451;49.060;10.616;2023-05-01T13:29:54;96497.00;;;12.97;100.00
57628;BME280;43451;49.060;10.616;2023-05-01T13:32:21;96494.44;;;13.10;99.52
57628;BME280;43451;49.060;10.616;2023-05-01T13:34:47;96489.00;;;13.10;97.07